createdAt,value
2023-02-15T00:00:50.067Z,3.70
2023-02-15T00:03:56.100Z,3.70
2023-02-15T00:07:01.798Z,3.60
2023-02-15T00:10:09.436Z,3.60
2023-02-15T00:13:13.294Z,3.60
2023-02-15T00:16:19.137Z,3.60
2023-02-15T00:19:23.756Z,3.50
2023-02-15T00:22:31.522Z,3.50
2023-02-15T00:25:35.334Z,3.50
2023-02-15T00:28:41.576Z,3.50
2023-02-15T00:31:45.632Z,3.40
2023-02-15T00:34:51.550Z,3.40
2023-02-15T00:37:58.333Z,3.40
2023-02-15T00:41:06.194Z,3.30
2023-02-15T00:44:10.458Z,3.30
2023-02-15T00:47:16.352Z,3.30
2023-02-15T00:50:22.247Z,3.30
2023-02-15T00:53:32.490Z,3.30
2023-02-15T00:56:36.273Z,3.30
2023-02-15T00:59:43.262Z,3.20
2023-02-15T01:02:47.293Z,3.20
2023-02-15T01:05:53.973Z,3.20
2023-02-15T01:08:59.521Z,3.20
2023-02-15T01:12:05.611Z,3.10
2023-02-15T01:15:10.155Z,3.10
2023-02-15T01:18:17.656Z,3.10
2023-02-15T01:21:23.359Z,3.00
2023-02-15T01:24:31.146Z,3.00
2023-02-15T01:27:35.061Z,3.00
2023-02-15T01:30:41.170Z,3.00
2023-02-15T01:33:45.270Z,2.90
2023-02-15T01:36:51.283Z,3.00
2023-02-15T01:39:57.120Z,3.00
2023-02-15T01:43:03.095Z,2.90
2023-02-15T01:46:07.219Z,2.90
2023-02-15T01:49:17.814Z,2.90
2023-02-15T01:52:21.727Z,2.80
2023-02-15T01:55:36.440Z,2.90
2023-02-15T01:58:41.051Z,2.90
2023-02-15T02:01:47.718Z,2.80
2023-02-15T02:04:53.558Z,2.80
2023-02-15T02:08:02.298Z,2.80
2023-02-15T02:11:12.955Z,2.80
2023-02-15T02:14:19.648Z,2.70
2023-02-15T02:17:31.063Z,2.70
2023-02-15T02:21:05.054Z,2.70
2023-02-15T02:24:31.260Z,2.70
2023-02-15T02:27:41.880Z,2.70
2023-02-15T02:31:18.494Z,2.60
2023-02-15T02:34:31.841Z,2.60
2023-02-15T02:37:46.019Z,2.60
2023-02-15T02:41:00.318Z,2.60
2023-02-15T02:44:12.938Z,2.50
2023-02-15T02:47:24.457Z,2.50
2023-02-15T02:50:32.148Z,2.50
2023-02-15T02:53:38.217Z,2.50
2023-02-15T02:56:47.212Z,2.40
2023-02-15T02:59:55.041Z,2.40
2023-02-15T03:03:05.253Z,2.40
2023-02-15T03:06:19.240Z,2.40
2023-02-15T03:09:34.895Z,2.40
2023-02-15T03:12:42.890Z,2.40
2023-02-15T03:16:01.081Z,2.40
2023-02-15T03:19:11.861Z,2.40
2023-02-15T03:22:21.452Z,2.30
2023-02-15T03:25:32.283Z,2.30
2023-02-15T03:28:42.160Z,2.30
2023-02-15T03:31:52.326Z,2.20
2023-02-15T03:34:56.951Z,2.20
2023-02-15T03:38:05.908Z,2.20
2023-02-15T03:41:14.153Z,2.20
2023-02-15T03:44:24.830Z,2.20
2023-02-15T03:47:32.469Z,2.20
2023-02-15T03:51:05.412Z,2.10
2023-02-15T03:54:13.277Z,2.10
2023-02-15T03:57:35.699Z,2.10
2023-02-15T04:00:59.362Z,2.00
2023-02-15T04:04:11.487Z,2.00
2023-02-15T04:07:15.393Z,2.00
2023-02-15T04:10:36.285Z,2.00
2023-02-15T04:13:40.362Z,2.00
2023-02-15T04:16:44.471Z,2.00
2023-02-15T04:20:01.549Z,1.90
2023-02-15T04:23:22.512Z,1.90
2023-02-15T04:26:28.260Z,1.90
2023-02-15T04:29:34.428Z,1.90
2023-02-15T04:32:38.889Z,1.90
2023-02-15T04:35:47.134Z,1.90
2023-02-15T04:38:51.027Z,1.80
2023-02-15T04:41:58.817Z,1.80
2023-02-15T04:45:02.711Z,1.80
2023-02-15T04:48:09.541Z,1.80
2023-02-15T04:51:13.416Z,1.80
2023-02-15T04:54:19.301Z,1.80
2023-02-15T04:57:25.101Z,1.80
2023-02-15T05:00:30.944Z,1.80
2023-02-15T05:03:34.732Z,1.70
2023-02-15T05:06:40.792Z,1.70
2023-02-15T05:09:44.839Z,1.70
2023-02-15T05:12:52.609Z,1.70
2023-02-15T05:15:56.880Z,1.70
2023-02-15T05:19:02.917Z,1.70
2023-02-15T05:22:06.736Z,1.70
2023-02-15T05:25:37.607Z,1.60
2023-02-15T05:28:43.328Z,1.60
2023-02-15T05:31:49.572Z,1.60
2023-02-15T05:34:53.427Z,1.60
2023-02-15T05:37:59.285Z,1.60
2023-02-15T05:41:03.124Z,1.60
2023-02-15T05:44:10.870Z,1.60
2023-02-15T05:47:14.740Z,1.60
2023-02-15T05:50:21.140Z,1.50
2023-02-15T05:53:24.925Z,1.50
2023-02-15T05:56:30.709Z,1.50
2023-02-15T05:59:36.208Z,1.50
2023-02-15T06:02:42.426Z,1.50
2023-02-15T06:05:46.240Z,1.50
2023-02-15T06:08:52.049Z,1.50
2023-02-15T06:11:55.888Z,1.50
2023-02-15T06:15:03.702Z,1.50
2023-02-15T06:18:07.744Z,1.40
2023-02-15T06:21:13.781Z,1.40
2023-02-15T06:24:17.696Z,1.40
2023-02-15T06:27:23.550Z,1.40
2023-02-15T06:30:29.319Z,1.30
2023-02-15T06:33:35.719Z,1.30
2023-02-15T06:36:39.498Z,1.30
2023-02-15T06:39:45.476Z,1.30
2023-02-15T06:42:49.382Z,1.30
2023-02-15T06:45:57.154Z,1.30
2023-02-15T06:49:01.014Z,1.30
2023-02-15T06:52:06.970Z,1.20
2023-02-15T06:55:10.812Z,1.20
2023-02-15T06:58:16.756Z,1.30
2023-02-15T07:01:22.587Z,1.20
2023-02-15T07:04:30.553Z,1.20
2023-02-15T07:07:34.452Z,1.20
2023-02-15T07:10:40.303Z,1.20
2023-02-15T07:13:43.051Z,1.20
2023-02-15T07:16:50.827Z,1.20
2023-02-15T07:19:54.655Z,1.20
2023-02-15T07:23:00.434Z,1.20
2023-02-15T07:26:04.359Z,1.20
2023-02-15T07:29:10.281Z,1.20
2023-02-15T07:32:16.368Z,1.20
2023-02-15T07:35:22.385Z,1.20
2023-02-15T07:38:27.935Z,1.20
2023-02-15T07:41:33.845Z,1.20
2023-02-15T07:44:37.677Z,1.20
2023-02-15T07:47:45.442Z,1.20
2023-02-15T07:50:49.299Z,1.20
2023-02-15T07:53:55.631Z,1.20
2023-02-15T07:56:59.438Z,1.20
2023-02-15T08:00:06.318Z,1.30
2023-02-15T08:03:18.499Z,1.30
2023-02-15T08:06:25.528Z,1.30
2023-02-15T08:09:29.345Z,1.30
2023-02-15T08:12:35.200Z,1.40
2023-02-15T08:15:39.035Z,1.40
2023-02-15T08:18:46.785Z,1.50
2023-02-15T08:21:52.495Z,1.60
2023-02-15T08:24:58.343Z,1.60
2023-02-15T08:28:02.169Z,1.70
2023-02-15T08:31:08.955Z,1.80
2023-02-15T08:34:18.668Z,2.00
2023-02-15T08:37:26.095Z,2.10
2023-02-15T08:40:29.966Z,2.30
2023-02-15T08:43:35.772Z,2.50
2023-02-15T08:46:41.916Z,2.70
2023-02-15T08:49:49.636Z,2.90
2023-02-15T08:52:53.460Z,3.10
2023-02-15T08:55:59.735Z,3.30
2023-02-15T08:59:04.556Z,3.50
2023-02-15T09:02:12.710Z,3.70
2023-02-15T09:05:18.746Z,4.00
2023-02-15T09:08:24.545Z,4.30
2023-02-15T09:11:29.026Z,4.50
2023-02-15T09:14:35.980Z,4.70
2023-02-15T09:17:39.851Z,5.00
2023-02-15T09:20:48.170Z,5.20
2023-02-15T09:23:54.589Z,5.40
2023-02-15T09:27:00.410Z,5.60
2023-02-15T09:30:04.180Z,5.70
2023-02-15T09:33:10.046Z,5.90
2023-02-15T09:36:19.560Z,6.10
2023-02-15T09:39:27.141Z,6.30
2023-02-15T09:42:45.348Z,6.40
2023-02-15T09:46:11.082Z,6.60
2023-02-15T09:49:25.816Z,6.80
2023-02-15T09:52:48.907Z,7.00
2023-02-15T09:56:00.602Z,7.20
2023-02-15T09:59:16.656Z,7.50
2023-02-15T10:02:36.268Z,7.70
2023-02-15T10:05:50.404Z,7.90
2023-02-15T10:09:27.809Z,8.10
2023-02-15T10:12:51.993Z,8.30
2023-02-15T10:16:12.955Z,8.50
2023-02-15T10:19:28.548Z,8.70
2023-02-15T10:22:43.301Z,8.90
2023-02-15T10:25:57.473Z,9.10
2023-02-15T10:29:09.293Z,9.20
2023-02-15T10:32:25.238Z,9.40
2023-02-15T10:35:36.815Z,9.50
2023-02-15T10:38:50.249Z,9.70
2023-02-15T10:42:06.438Z,9.80
2023-02-15T10:45:25.223Z,10.00
2023-02-15T10:48:44.380Z,10.10
2023-02-15T10:52:04.098Z,10.20
2023-02-15T10:55:14.884Z,10.30
2023-02-15T10:58:34.321Z,10.40
2023-02-15T11:01:43.968Z,10.50
2023-02-15T11:04:59.450Z,10.70
2023-02-15T11:08:08.432Z,10.80
2023-02-15T11:11:18.764Z,10.80
2023-02-15T11:14:35.419Z,10.90
2023-02-15T11:17:45.750Z,11.00
2023-02-15T11:20:56.415Z,11.20
2023-02-15T11:24:03.202Z,11.20
2023-02-15T11:27:19.298Z,11.30
2023-02-15T11:30:30.547Z,11.40
2023-02-15T11:33:39.144Z,11.50
2023-02-15T11:36:47.891Z,11.60
2023-02-15T11:39:55.106Z,11.60
2023-02-15T11:43:06.891Z,11.70
2023-02-15T11:46:15.425Z,11.80
2023-02-15T11:49:27.747Z,11.90
2023-02-15T11:52:31.754Z,11.90
2023-02-15T11:55:38.278Z,12.00
2023-02-15T11:58:45.648Z,12.10
2023-02-15T12:01:53.622Z,12.20
2023-02-15T12:05:00.603Z,12.30
2023-02-15T12:08:15.098Z,12.30
2023-02-15T12:11:24.547Z,12.40
2023-02-15T12:14:50.830Z,12.40
2023-02-15T12:17:57.177Z,12.50
2023-02-15T12:21:05.541Z,12.50
2023-02-15T12:24:20.077Z,12.50
2023-02-15T12:27:30.054Z,12.50
2023-02-15T12:30:36.961Z,12.60
2023-02-15T12:33:46.463Z,12.60
2023-02-15T12:36:54.703Z,12.60
2023-02-15T12:40:01.996Z,12.60
2023-02-15T12:43:09.299Z,12.60
2023-02-15T12:46:24.787Z,12.60
2023-02-15T12:49:31.874Z,12.70
2023-02-15T12:52:37.813Z,12.70
2023-02-15T12:55:51.387Z,12.70
2023-02-15T12:59:07.573Z,12.80
2023-02-15T13:02:17.793Z,12.80
2023-02-15T13:05:31.730Z,12.80
2023-02-15T13:08:38.419Z,12.80
2023-02-15T13:11:46.161Z,12.80
2023-02-15T13:14:55.133Z,12.80
2023-02-15T13:18:01.941Z,12.80
2023-02-15T13:21:15.345Z,12.80
2023-02-15T13:24:25.679Z,12.80
2023-02-15T13:27:37.589Z,12.70
2023-02-15T13:30:48.229Z,12.80
2023-02-15T13:33:55.655Z,12.70
2023-02-15T13:37:13.601Z,12.80
2023-02-15T13:40:24.855Z,12.80
2023-02-15T13:43:39.865Z,12.70
2023-02-15T13:46:54.944Z,12.80
2023-02-15T13:50:24.252Z,12.80
2023-02-15T13:53:59.276Z,12.70
2023-02-15T13:57:32.779Z,12.70
2023-02-15T14:00:49.741Z,12.70
2023-02-15T14:04:26.073Z,12.70
2023-02-15T14:07:41.234Z,12.70
2023-02-15T14:10:54.071Z,12.70
2023-02-15T14:14:18.156Z,12.70
2023-02-15T14:17:31.399Z,12.70
2023-02-15T14:20:45.620Z,12.70
2023-02-15T14:24:09.418Z,12.70
2023-02-15T14:27:25.728Z,12.70
2023-02-15T14:30:36.906Z,12.70
2023-02-15T14:33:43.109Z,12.70
2023-02-15T14:36:49.433Z,12.70
2023-02-15T14:40:14.137Z,12.60
2023-02-15T14:43:30.011Z,12.70
2023-02-15T14:46:41.273Z,12.60
2023-02-15T14:49:47.121Z,12.60
2023-02-15T14:53:18.905Z,12.70
2023-02-15T14:56:28.750Z,12.60
2023-02-15T14:59:41.150Z,12.60
2023-02-15T15:02:52.812Z,12.60
2023-02-15T15:06:01.355Z,12.60
2023-02-15T15:09:15.316Z,12.60
2023-02-15T15:12:42.025Z,12.60
2023-02-15T15:15:49.325Z,12.60
2023-02-15T15:18:56.063Z,12.60
2023-02-15T15:22:06.406Z,12.60
2023-02-15T15:25:30.049Z,12.60
2023-02-15T15:29:01.161Z,12.50
2023-02-15T15:32:05.728Z,12.50
2023-02-15T15:35:26.173Z,12.50
2023-02-15T15:38:43.612Z,12.50
2023-02-15T15:41:56.308Z,12.50
2023-02-15T15:45:35.126Z,12.50
2023-02-15T15:48:43.307Z,12.40
2023-02-15T15:51:50.835Z,12.40
2023-02-15T15:55:00.541Z,12.40
2023-02-15T15:58:08.092Z,12.30
2023-02-15T16:01:14.156Z,12.30
2023-02-15T16:04:27.361Z,12.30
2023-02-15T16:07:35.136Z,12.20
2023-02-15T16:10:39.496Z,12.20
2023-02-15T16:13:46.223Z,12.10
2023-02-15T16:16:53.505Z,12.10
2023-02-15T16:20:03.867Z,12.00
2023-02-15T16:23:25.311Z,12.00
2023-02-15T16:26:51.766Z,11.90
2023-02-15T16:29:55.391Z,11.90
2023-02-15T16:33:09.122Z,11.80
2023-02-15T16:36:14.291Z,11.80
2023-02-15T16:39:23.026Z,11.70
2023-02-15T16:42:27.463Z,11.70
2023-02-15T16:45:37.351Z,11.60
2023-02-15T16:48:45.262Z,11.50
2023-02-15T16:51:58.156Z,11.50
2023-02-15T16:55:07.237Z,11.40
2023-02-15T16:58:18.112Z,11.40
2023-02-15T17:01:25.989Z,11.30
2023-02-15T17:04:34.950Z,11.20
2023-02-15T17:07:42.653Z,11.10
2023-02-15T17:11:16.840Z,11.10
2023-02-15T17:14:29.051Z,11.00
2023-02-15T17:17:34.709Z,11.00
2023-02-15T17:20:42.128Z,10.90
2023-02-15T17:23:50.264Z,10.80
2023-02-15T17:27:00.287Z,10.80
2023-02-15T17:30:17.458Z,10.70
2023-02-15T17:33:25.988Z,10.60
2023-02-15T17:36:33.219Z,10.50
2023-02-15T17:39:37.042Z,10.40
2023-02-15T17:42:44.777Z,10.40
2023-02-15T17:45:51.314Z,10.30
2023-02-15T17:48:57.916Z,10.30
2023-02-15T17:52:02.018Z,10.20
2023-02-15T17:55:29.608Z,10.10
2023-02-15T17:58:35.447Z,10.00
2023-02-15T18:02:03.820Z,10.00
2023-02-15T18:05:27.221Z,9.90
2023-02-15T18:08:46.174Z,9.80
2023-02-15T18:11:50.087Z,9.80
2023-02-15T18:14:59.109Z,9.70
2023-02-15T18:18:04.235Z,9.60
2023-02-15T18:21:12.178Z,9.60
2023-02-15T18:24:19.212Z,9.50
2023-02-15T18:27:25.190Z,9.40
2023-02-15T18:30:30.714Z,9.40
2023-02-15T18:33:39.813Z,9.30
2023-02-15T18:36:46.508Z,9.30
2023-02-15T18:39:54.720Z,9.20
2023-02-15T18:42:58.586Z,9.20
2023-02-15T18:46:06.489Z,9.10
2023-02-15T18:49:10.338Z,9.10
2023-02-15T18:52:18.343Z,9.00
2023-02-15T18:55:24.493Z,8.90
2023-02-15T18:58:30.363Z,8.90
2023-02-15T19:01:35.915Z,8.90
2023-02-15T19:04:42.591Z,8.80
2023-02-15T19:07:47.941Z,8.80
2023-02-15T19:10:53.927Z,8.70
2023-02-15T19:13:57.773Z,8.70
2023-02-15T19:17:05.844Z,8.70
2023-02-15T19:20:16.648Z,8.60
2023-02-15T19:23:26.080Z,8.60
2023-02-15T19:26:44.379Z,8.50
2023-02-15T19:29:51.530Z,8.50
2023-02-15T19:32:57.653Z,8.50
2023-02-15T19:36:03.902Z,8.40
2023-02-15T19:39:08.049Z,8.40
2023-02-15T19:42:16.483Z,8.30
2023-02-15T19:45:22.450Z,8.30
2023-02-15T19:48:30.221Z,8.30
2023-02-15T19:51:34.414Z,8.20
2023-02-15T19:54:40.279Z,8.20
2023-02-15T19:57:43.874Z,8.20
2023-02-15T20:00:51.001Z,8.20
2023-02-15T20:03:56.715Z,8.20
2023-02-15T20:07:03.879Z,8.10
2023-02-15T20:10:16.666Z,8.10
2023-02-15T20:13:23.813Z,8.00
2023-02-15T20:16:29.249Z,8.00
2023-02-15T20:19:38.414Z,8.00
2023-02-15T20:22:43.834Z,8.00
2023-02-15T20:25:49.825Z,7.90
2023-02-15T20:28:53.377Z,7.90
2023-02-15T20:32:00.861Z,7.90
2023-02-15T20:35:07.737Z,7.90
2023-02-15T20:38:20.811Z,7.90
2023-02-15T20:41:46.286Z,7.90
2023-02-15T20:44:52.149Z,7.80
2023-02-15T20:47:56.306Z,7.80
2023-02-15T20:51:06.306Z,7.80
2023-02-15T20:54:15.688Z,7.80
2023-02-15T20:57:21.510Z,7.80
2023-02-15T21:00:27.616Z,7.80
2023-02-15T21:03:33.514Z,7.70
2023-02-15T21:06:39.033Z,7.70
2023-02-15T21:09:44.963Z,7.70
2023-02-15T21:12:49.306Z,7.70
2023-02-15T21:15:56.876Z,7.70
2023-02-15T21:19:00.705Z,7.70
2023-02-15T21:22:08.984Z,7.70
2023-02-15T21:25:16.072Z,7.60
2023-02-15T21:28:23.818Z,7.60
2023-02-15T21:31:28.061Z,7.60
2023-02-15T21:34:33.951Z,7.60
2023-02-15T21:37:40.612Z,7.60
2023-02-15T21:40:46.746Z,7.60
2023-02-15T21:44:03.719Z,7.50
2023-02-15T21:47:32.582Z,7.60
2023-02-15T21:50:50.709Z,7.50
2023-02-15T21:53:58.537Z,7.50
2023-02-15T21:57:02.953Z,7.50
2023-02-15T22:00:16.208Z,7.50
2023-02-15T22:03:20.016Z,7.50
2023-02-15T22:06:25.954Z,7.50
2023-02-15T22:09:32.704Z,7.50
2023-02-15T22:12:39.349Z,7.50
2023-02-15T22:15:45.962Z,7.50
2023-02-15T22:18:51.791Z,7.50
2023-02-15T22:21:55.663Z,7.40
2023-02-15T22:25:03.505Z,7.50
2023-02-15T22:28:08.238Z,7.50
2023-02-15T22:31:16.549Z,7.50
2023-02-15T22:34:27.853Z,7.40
2023-02-15T22:37:33.671Z,7.40
2023-02-15T22:40:39.447Z,7.40
2023-02-15T22:43:47.059Z,7.40
2023-02-15T22:46:50.947Z,7.40
2023-02-15T22:49:57.034Z,7.40
2023-02-15T22:53:02.091Z,7.40
2023-02-15T22:56:17.667Z,7.40
2023-02-15T22:59:27.741Z,7.40
2023-02-15T23:02:33.533Z,7.40
2023-02-15T23:05:37.427Z,7.40
2023-02-15T23:08:43.316Z,7.40
2023-02-15T23:11:49.537Z,7.40
2023-02-15T23:14:56.862Z,7.40
2023-02-15T23:18:16.376Z,7.30
2023-02-15T23:21:23.159Z,7.30
2023-02-15T23:24:33.841Z,7.30
2023-02-15T23:27:53.026Z,7.30
2023-02-15T23:31:00.395Z,7.30
2023-02-15T23:34:15.440Z,7.20
2023-02-15T23:37:21.277Z,7.30
2023-02-15T23:40:38.287Z,7.20
2023-02-15T23:43:49.097Z,7.20
2023-02-15T23:46:54.502Z,7.20
2023-02-15T23:50:00.263Z,7.10
2023-02-15T23:53:04.420Z,7.10
2023-02-15T23:56:14.415Z,7.10
2023-02-15T23:59:21.915Z,7.10
